sensor_id;sensor_type;location;lat;lon;timestamp;P1;durP1;ratioP1;P2;durP2;ratioP2
30062;SDS011;16889;67.864;24.990;2023-07-13T00:02:55;5.00;;;4.03;;
30062;SDS011;16889;67.864;24.990;2023-07-13T00:07:41;5.82;;;4.15;;
30062;SDS011;16889;67.864;24.990;2023-07-13T00:12:29;5.55;;;4.30;;
30062;SDS011;16889;67.864;24.990;2023-07-13T00:17:19;5.25;;;4.10;;
30062;SDS011;16889;67.864;24.990;2023-07-13T00:22:05;4.65;;;4.00;;
30062;SDS011;16889;67.864;24.990;2023-07-13T00:26:51;6.30;;;4.65;;
30062;SDS011;16889;67.864;24.990;2023-07-13T00:31:37;6.45;;;4.22;;
30062;SDS011;16889;67.864;24.990;2023-07-13T00:36:23;5.45;;;4.70;;
30062;SDS011;16889;67.864;24.990;2023-07-13T00:41:09;6.28;;;4.72;;
30062;SDS011;16889;67.864;24.990;2023-07-13T00:50:41;5.35;;;4.40;;
30062;SDS011;16889;67.864;24.990;2023-07-13T00:55:29;5.03;;;4.00;;
30062;SDS011;16889;67.864;24.990;2023-07-13T01:00:16;7.32;;;4.65;;
30062;SDS011;16889;67.864;24.990;2023-07-13T01:05:08;4.50;;;3.90;;
30062;SDS011;16889;67.864;24.990;2023-07-13T01:09:59;5.72;;;5.13;;
30062;SDS011;16889;67.864;24.990;2023-07-13T01:14:45;7.15;;;5.10;;
30062;SDS011;16889;67.864;24.990;2023-07-13T01:19:33;6.43;;;5.22;;
30062;SDS011;16889;67.864;24.990;2023-07-13T01:24:27;10.13;;;4.75;;
30062;SDS011;16889;67.864;24.990;2023-07-13T01:29:14;6.30;;;4.70;;
30062;SDS011;16889;67.864;24.990;2023-07-13T01:34:00;5.40;;;4.82;;
30062;SDS011;16889;67.864;24.990;2023-07-13T01:38:46;7.20;;;5.60;;
30062;SDS011;16889;67.864;24.990;2023-07-13T01:43:32;6.30;;;5.38;;
30062;SDS011;16889;67.864;24.990;2023-07-13T01:48:18;6.18;;;5.18;;
30062;SDS011;16889;67.864;24.990;2023-07-13T01:53:05;9.93;;;5.45;;
30062;SDS011;16889;67.864;24.990;2023-07-13T01:57:51;6.20;;;5.35;;
30062;SDS011;16889;67.864;24.990;2023-07-13T02:02:37;7.53;;;5.38;;
30062;SDS011;16889;67.864;24.990;2023-07-13T02:07:23;6.05;;;5.07;;
30062;SDS011;16889;67.864;24.990;2023-07-13T02:12:09;7.47;;;5.10;;
30062;SDS011;16889;67.864;24.990;2023-07-13T02:16:55;9.32;;;5.60;;
30062;SDS011;16889;67.864;24.990;2023-07-13T02:21:41;5.32;;;4.78;;
30062;SDS011;16889;67.864;24.990;2023-07-13T02:26:28;5.82;;;4.85;;
30062;SDS011;16889;67.864;24.990;2023-07-13T02:31:15;5.60;;;5.03;;
30062;SDS011;16889;67.864;24.990;2023-07-13T02:36:01;9.30;;;5.27;;
30062;SDS011;16889;67.864;24.990;2023-07-13T02:40:50;5.65;;;5.03;;
30062;SDS011;16889;67.864;24.990;2023-07-13T02:45:36;6.40;;;5.13;;
30062;SDS011;16889;67.864;24.990;2023-07-13T02:50:22;6.75;;;5.30;;
30062;SDS011;16889;67.864;24.990;2023-07-13T02:55:08;6.45;;;5.28;;
30062;SDS011;16889;67.864;24.990;2023-07-13T02:59:54;7.25;;;5.28;;
30062;SDS011;16889;67.864;24.990;2023-07-13T03:04:40;5.97;;;4.88;;
30062;SDS011;16889;67.864;24.990;2023-07-13T03:09:26;5.85;;;5.20;;
30062;SDS011;16889;67.864;24.990;2023-07-13T03:14:12;8.07;;;5.32;;
30062;SDS011;16889;67.864;24.990;2023-07-13T03:18:58;5.90;;;5.30;;
30062;SDS011;16889;67.864;24.990;2023-07-13T03:23:44;5.88;;;5.10;;
30062;SDS011;16889;67.864;24.990;2023-07-13T03:28:31;6.35;;;5.10;;
30062;SDS011;16889;67.864;24.990;2023-07-13T03:33:17;7.35;;;5.30;;
30062;SDS011;16889;67.864;24.990;2023-07-13T03:38:03;6.80;;;4.97;;
30062;SDS011;16889;67.864;24.990;2023-07-13T03:42:49;6.72;;;5.50;;
30062;SDS011;16889;67.864;24.990;2023-07-13T03:47:35;6.35;;;4.90;;
30062;SDS011;16889;67.864;24.990;2023-07-13T03:52:21;7.50;;;4.85;;
30062;SDS011;16889;67.864;24.990;2023-07-13T03:57:07;5.85;;;4.78;;
30062;SDS011;16889;67.864;24.990;2023-07-13T04:01:54;7.65;;;5.03;;
30062;SDS011;16889;67.864;24.990;2023-07-13T04:06:40;10.00;;;5.28;;
30062;SDS011;16889;67.864;24.990;2023-07-13T04:11:28;6.68;;;5.10;;
30062;SDS011;16889;67.864;24.990;2023-07-13T04:16:17;6.68;;;4.82;;
30062;SDS011;16889;67.864;24.990;2023-07-13T04:21:03;7.28;;;5.22;;
30062;SDS011;16889;67.864;24.990;2023-07-13T04:25:51;5.25;;;4.70;;
30062;SDS011;16889;67.864;24.990;2023-07-13T04:30:38;6.53;;;5.03;;
30062;SDS011;16889;67.864;24.990;2023-07-13T04:35:24;5.40;;;4.28;;
30062;SDS011;16889;67.864;24.990;2023-07-13T04:40:10;5.30;;;4.53;;
30062;SDS011;16889;67.864;24.990;2023-07-13T04:44:57;4.93;;;4.38;;
30062;SDS011;16889;67.864;24.990;2023-07-13T04:49:43;6.95;;;4.70;;
30062;SDS011;16889;67.864;24.990;2023-07-13T04:54:30;9.30;;;4.30;;
30062;SDS011;16889;67.864;24.990;2023-07-13T04:59:17;5.73;;;4.20;;
30062;SDS011;16889;67.864;24.990;2023-07-13T05:04:03;6.07;;;3.88;;
30062;SDS011;16889;67.864;24.990;2023-07-13T05:08:49;8.57;;;4.10;;
30062;SDS011;16889;67.864;24.990;2023-07-13T05:13:35;7.10;;;3.80;;
30062;SDS011;16889;67.864;24.990;2023-07-13T05:18:25;6.85;;;3.45;;
30062;SDS011;16889;67.864;24.990;2023-07-13T05:23:12;8.35;;;3.40;;
30062;SDS011;16889;67.864;24.990;2023-07-13T05:27:58;8.32;;;4.05;;
30062;SDS011;16889;67.864;24.990;2023-07-13T05:32:44;8.30;;;3.25;;
30062;SDS011;16889;67.864;24.990;2023-07-13T05:37:31;6.32;;;3.20;;
30062;SDS011;16889;67.864;24.990;2023-07-13T05:42:17;5.43;;;2.85;;
30062;SDS011;16889;67.864;24.990;2023-07-13T05:47:02;6.80;;;3.17;;
30062;SDS011;16889;67.864;24.990;2023-07-13T05:51:49;5.38;;;3.30;;
30062;SDS011;16889;67.864;24.990;2023-07-13T05:56:35;5.20;;;2.90;;
30062;SDS011;16889;67.864;24.990;2023-07-13T06:01:21;5.90;;;3.08;;
30062;SDS011;16889;67.864;24.990;2023-07-13T06:06:09;4.43;;;3.10;;
30062;SDS011;16889;67.864;24.990;2023-07-13T06:11:01;5.88;;;3.20;;
30062;SDS011;16889;67.864;24.990;2023-07-13T06:15:57;6.30;;;3.00;;
30062;SDS011;16889;67.864;24.990;2023-07-13T06:20:43;4.20;;;3.03;;
30062;SDS011;16889;67.864;24.990;2023-07-13T06:25:30;4.43;;;2.80;;
30062;SDS011;16889;67.864;24.990;2023-07-13T06:30:15;7.43;;;3.00;;
30062;SDS011;16889;67.864;24.990;2023-07-13T06:35:01;6.30;;;2.75;;
30062;SDS011;16889;67.864;24.990;2023-07-13T06:39:47;3.85;;;2.97;;
30062;SDS011;16889;67.864;24.990;2023-07-13T06:44:34;5.07;;;3.00;;
30062;SDS011;16889;67.864;24.990;2023-07-13T06:49:20;3.47;;;3.03;;
30062;SDS011;16889;67.864;24.990;2023-07-13T06:54:06;4.53;;;3.20;;
30062;SDS011;16889;67.864;24.990;2023-07-13T06:58:52;7.30;;;3.28;;
30062;SDS011;16889;67.864;24.990;2023-07-13T07:03:38;8.45;;;3.10;;
30062;SDS011;16889;67.864;24.990;2023-07-13T07:08:24;5.75;;;3.00;;
30062;SDS011;16889;67.864;24.990;2023-07-13T07:13:10;3.53;;;2.63;;
30062;SDS011;16889;67.864;24.990;2023-07-13T07:17:56;3.80;;;2.85;;
30062;SDS011;16889;67.864;24.990;2023-07-13T07:22:42;4.55;;;3.05;;
30062;SDS011;16889;67.864;24.990;2023-07-13T07:27:28;5.28;;;3.05;;
30062;SDS011;16889;67.864;24.990;2023-07-13T07:32:14;4.78;;;2.70;;
30062;SDS011;16889;67.864;24.990;2023-07-13T07:37:00;5.35;;;3.20;;
30062;SDS011;16889;67.864;24.990;2023-07-13T07:41:46;3.83;;;3.13;;
30062;SDS011;16889;67.864;24.990;2023-07-13T07:46:32;6.22;;;3.22;;
30062;SDS011;16889;67.864;24.990;2023-07-13T07:51:18;4.88;;;3.35;;
30062;SDS011;16889;67.864;24.990;2023-07-13T07:56:04;3.75;;;3.00;;
30062;SDS011;16889;67.864;24.990;2023-07-13T08:00:50;4.43;;;3.17;;
30062;SDS011;16889;67.864;24.990;2023-07-13T08:05:36;3.40;;;2.88;;
30062;SDS011;16889;67.864;24.990;2023-07-13T08:10:22;3.78;;;3.20;;
30062;SDS011;16889;67.864;24.990;2023-07-13T08:15:10;3.50;;;2.85;;
30062;SDS011;16889;67.864;24.990;2023-07-13T08:19:58;4.57;;;3.05;;
30062;SDS011;16889;67.864;24.990;2023-07-13T08:24:45;4.68;;;3.58;;
30062;SDS011;16889;67.864;24.990;2023-07-13T08:29:32;5.22;;;3.72;;
30062;SDS011;16889;67.864;24.990;2023-07-13T08:34:18;4.40;;;3.40;;
30062;SDS011;16889;67.864;24.990;2023-07-13T08:39:04;4.90;;;3.90;;
30062;SDS011;16889;67.864;24.990;2023-07-13T08:43:54;6.90;;;4.07;;
30062;SDS011;16889;67.864;24.990;2023-07-13T08:48:47;5.18;;;4.00;;
30062;SDS011;16889;67.864;24.990;2023-07-13T08:53:38;5.68;;;4.10;;
30062;SDS011;16889;67.864;24.990;2023-07-13T08:58:29;6.28;;;4.13;;
30062;SDS011;16889;67.864;24.990;2023-07-13T09:03:23;5.57;;;4.37;;
30062;SDS011;16889;67.864;24.990;2023-07-13T09:13:43;4.87;;;4.00;;
30062;SDS011;16889;67.864;24.990;2023-07-13T09:18:35;4.37;;;3.80;;
30062;SDS011;16889;67.864;24.990;2023-07-13T09:23:32;5.00;;;3.63;;
30062;SDS011;16889;67.864;24.990;2023-07-13T09:28:25;4.90;;;4.00;;
30062;SDS011;16889;67.864;24.990;2023-07-13T09:33:16;5.13;;;3.80;;
30062;SDS011;16889;67.864;24.990;2023-07-13T09:38:04;4.70;;;3.45;;
30062;SDS011;16889;67.864;24.990;2023-07-13T09:42:57;6.45;;;3.90;;
30062;SDS011;16889;67.864;24.990;2023-07-13T09:47:44;7.07;;;3.55;;
30062;SDS011;16889;67.864;24.990;2023-07-13T09:52:40;8.02;;;3.40;;
30062;SDS011;16889;67.864;24.990;2023-07-13T09:57:27;7.00;;;3.60;;
30062;SDS011;16889;67.864;24.990;2023-07-13T10:02:23;4.97;;;3.22;;
30062;SDS011;16889;67.864;24.990;2023-07-13T10:07:22;5.63;;;3.25;;
30062;SDS011;16889;67.864;24.990;2023-07-13T10:12:14;3.50;;;3.00;;
30062;SDS011;16889;67.864;24.990;2023-07-13T10:17:00;5.30;;;2.85;;
30062;SDS011;16889;67.864;24.990;2023-07-13T10:21:58;5.85;;;2.95;;
30062;SDS011;16889;67.864;24.990;2023-07-13T10:26:47;4.47;;;2.90;;
30062;SDS011;16889;67.864;24.990;2023-07-13T10:31:56;3.75;;;2.67;;
30062;SDS011;16889;67.864;24.990;2023-07-13T10:36:44;3.50;;;2.72;;
30062;SDS011;16889;67.864;24.990;2023-07-13T10:41:34;4.15;;;2.88;;
30062;SDS011;16889;67.864;24.990;2023-07-13T10:46:25;5.10;;;2.90;;
30062;SDS011;16889;67.864;24.990;2023-07-13T10:51:14;3.65;;;2.75;;
30062;SDS011;16889;67.864;24.990;2023-07-13T11:05:52;4.47;;;3.10;;
30062;SDS011;16889;67.864;24.990;2023-07-13T11:10:55;4.88;;;2.83;;
30062;SDS011;16889;67.864;24.990;2023-07-13T11:15:45;7.80;;;3.30;;
30062;SDS011;16889;67.864;24.990;2023-07-13T11:20:35;4.25;;;2.42;;
30062;SDS011;16889;67.864;24.990;2023-07-13T11:25:28;3.25;;;2.70;;
30062;SDS011;16889;67.864;24.990;2023-07-13T11:35:24;4.22;;;2.60;;
30062;SDS011;16889;67.864;24.990;2023-07-13T11:40:12;5.53;;;2.65;;
30062;SDS011;16889;67.864;24.990;2023-07-13T11:45:00;5.93;;;2.75;;
30062;SDS011;16889;67.864;24.990;2023-07-13T11:49:48;3.78;;;2.55;;
30062;SDS011;16889;67.864;24.990;2023-07-13T11:54:56;4.70;;;2.90;;
30062;SDS011;16889;67.864;24.990;2023-07-13T11:59:45;4.10;;;2.93;;
30062;SDS011;16889;67.864;24.990;2023-07-13T12:04:32;4.03;;;2.67;;
30062;SDS011;16889;67.864;24.990;2023-07-13T12:09:19;4.10;;;2.58;;
30062;SDS011;16889;67.864;24.990;2023-07-13T12:14:14;3.67;;;2.72;;
30062;SDS011;16889;67.864;24.990;2023-07-13T12:19:02;5.32;;;3.03;;
30062;SDS011;16889;67.864;24.990;2023-07-13T12:23:49;5.50;;;3.30;;
30062;SDS011;16889;67.864;24.990;2023-07-13T12:28:37;5.32;;;3.33;;
30062;SDS011;16889;67.864;24.990;2023-07-13T12:33:23;4.20;;;3.33;;
30062;SDS011;16889;67.864;24.990;2023-07-13T12:38:13;4.32;;;3.30;;
30062;SDS011;16889;67.864;24.990;2023-07-13T12:43:01;3.88;;;3.00;;
30062;SDS011;16889;67.864;24.990;2023-07-13T12:57:25;4.07;;;3.25;;
30062;SDS011;16889;67.864;24.990;2023-07-13T13:07:18;5.57;;;3.33;;
30062;SDS011;16889;67.864;24.990;2023-07-13T13:12:05;7.03;;;3.40;;
30062;SDS011;16889;67.864;24.990;2023-07-13T13:16:52;5.63;;;3.90;;
30062;SDS011;16889;67.864;24.990;2023-07-13T13:21:38;7.95;;;3.28;;
30062;SDS011;16889;67.864;24.990;2023-07-13T13:26:24;6.20;;;3.47;;
30062;SDS011;16889;67.864;24.990;2023-07-13T13:31:11;10.95;;;4.00;;
30062;SDS011;16889;67.864;24.990;2023-07-13T13:35:58;8.60;;;4.07;;
30062;SDS011;16889;67.864;24.990;2023-07-13T13:40:44;5.70;;;3.42;;
30062;SDS011;16889;67.864;24.990;2023-07-13T13:45:31;5.00;;;3.30;;
30062;SDS011;16889;67.864;24.990;2023-07-13T13:50:20;5.25;;;3.58;;
30062;SDS011;16889;67.864;24.990;2023-07-13T13:55:12;7.43;;;3.80;;
30062;SDS011;16889;67.864;24.990;2023-07-13T13:59:59;6.28;;;3.72;;
30062;SDS011;16889;67.864;24.990;2023-07-13T14:04:45;9.27;;;3.97;;
30062;SDS011;16889;67.864;24.990;2023-07-13T14:09:31;6.47;;;3.65;;
30062;SDS011;16889;67.864;24.990;2023-07-13T14:14:20;5.88;;;3.80;;
30062;SDS011;16889;67.864;24.990;2023-07-13T14:19:10;4.85;;;3.75;;
30062;SDS011;16889;67.864;24.990;2023-07-13T14:23:59;5.88;;;4.22;;
30062;SDS011;16889;67.864;24.990;2023-07-13T14:28:46;10.32;;;4.38;;
30062;SDS011;16889;67.864;24.990;2023-07-13T14:33:33;12.38;;;4.70;;
30062;SDS011;16889;67.864;24.990;2023-07-13T14:38:22;10.40;;;4.32;;
30062;SDS011;16889;67.864;24.990;2023-07-13T14:43:09;9.07;;;4.70;;
30062;SDS011;16889;67.864;24.990;2023-07-13T14:47:57;7.03;;;4.70;;
30062;SDS011;16889;67.864;24.990;2023-07-13T14:52:44;5.75;;;4.55;;
30062;SDS011;16889;67.864;24.990;2023-07-13T15:02:38;6.63;;;4.78;;
30062;SDS011;16889;67.864;24.990;2023-07-13T15:07:23;10.45;;;5.22;;
30062;SDS011;16889;67.864;24.990;2023-07-13T15:12:10;7.75;;;4.68;;
30062;SDS011;16889;67.864;24.990;2023-07-13T15:16:56;8.77;;;5.53;;
30062;SDS011;16889;67.864;24.990;2023-07-13T15:21:42;10.52;;;5.57;;
30062;SDS011;16889;67.864;24.990;2023-07-13T15:26:28;11.77;;;6.60;;
30062;SDS011;16889;67.864;24.990;2023-07-13T15:31:17;9.07;;;5.88;;
30062;SDS011;16889;67.864;24.990;2023-07-13T15:36:08;10.20;;;5.75;;
30062;SDS011;16889;67.864;24.990;2023-07-13T15:40:54;11.15;;;6.18;;
30062;SDS011;16889;67.864;24.990;2023-07-13T15:45:41;11.33;;;6.77;;
30062;SDS011;16889;67.864;24.990;2023-07-13T15:50:29;10.05;;;7.85;;
30062;SDS011;16889;67.864;24.990;2023-07-13T15:55:37;17.20;;;7.75;;
30062;SDS011;16889;67.864;24.990;2023-07-13T16:00:26;20.98;;;7.95;;
30062;SDS011;16889;67.864;24.990;2023-07-13T16:05:12;13.53;;;7.60;;
30062;SDS011;16889;67.864;24.990;2023-07-13T16:09:59;11.82;;;7.80;;
30062;SDS011;16889;67.864;24.990;2023-07-13T16:14:45;13.35;;;7.32;;
30062;SDS011;16889;67.864;24.990;2023-07-13T16:19:31;13.55;;;7.78;;
30062;SDS011;16889;67.864;24.990;2023-07-13T16:24:19;11.23;;;7.80;;
30062;SDS011;16889;67.864;24.990;2023-07-13T16:29:20;13.30;;;8.40;;
30062;SDS011;16889;67.864;24.990;2023-07-13T16:34:08;11.85;;;7.22;;
30062;SDS011;16889;67.864;24.990;2023-07-13T16:38:54;10.68;;;5.57;;
30062;SDS011;16889;67.864;24.990;2023-07-13T16:43:40;5.78;;;4.00;;
30062;SDS011;16889;67.864;24.990;2023-07-13T16:48:26;12.77;;;3.78;;
30062;SDS011;16889;67.864;24.990;2023-07-13T16:53:17;10.07;;;2.88;;
30062;SDS011;16889;67.864;24.990;2023-07-13T16:58:07;11.07;;;2.92;;
30062;SDS011;16889;67.864;24.990;2023-07-13T17:02:59;9.63;;;2.97;;
30062;SDS011;16889;67.864;24.990;2023-07-13T17:07:50;5.80;;;3.08;;
30062;SDS011;16889;67.864;24.990;2023-07-13T17:12:37;9.05;;;3.10;;
30062;SDS011;16889;67.864;24.990;2023-07-13T17:17:30;5.63;;;3.33;;
30062;SDS011;16889;67.864;24.990;2023-07-13T17:22:18;4.95;;;3.08;;
30062;SDS011;16889;67.864;24.990;2023-07-13T17:27:04;6.45;;;3.28;;
30062;SDS011;16889;67.864;24.990;2023-07-13T17:31:51;9.57;;;2.80;;
30062;SDS011;16889;67.864;24.990;2023-07-13T17:36:37;6.18;;;2.83;;
30062;SDS011;16889;67.864;24.990;2023-07-13T17:41:23;9.60;;;3.03;;
30062;SDS011;16889;67.864;24.990;2023-07-13T17:46:15;7.15;;;3.55;;
30062;SDS011;16889;67.864;24.990;2023-07-13T17:51:15;4.70;;;2.92;;
30062;SDS011;16889;67.864;24.990;2023-07-13T17:56:02;5.10;;;2.80;;
30062;SDS011;16889;67.864;24.990;2023-07-13T18:00:50;5.07;;;2.80;;
30062;SDS011;16889;67.864;24.990;2023-07-13T18:05:36;9.00;;;2.33;;
30062;SDS011;16889;67.864;24.990;2023-07-13T18:10:23;8.00;;;2.70;;
30062;SDS011;16889;67.864;24.990;2023-07-13T18:15:09;6.20;;;3.40;;
30062;SDS011;16889;67.864;24.990;2023-07-13T18:19:56;8.07;;;3.65;;
30062;SDS011;16889;67.864;24.990;2023-07-13T18:24:42;6.88;;;3.53;;
30062;SDS011;16889;67.864;24.990;2023-07-13T18:29:28;5.90;;;3.47;;
30062;SDS011;16889;67.864;24.990;2023-07-13T18:34:14;7.07;;;3.30;;
30062;SDS011;16889;67.864;24.990;2023-07-13T18:39:00;5.45;;;3.15;;
30062;SDS011;16889;67.864;24.990;2023-07-13T18:43:48;4.25;;;3.13;;
30062;SDS011;16889;67.864;24.990;2023-07-13T18:48:35;11.15;;;3.30;;
30062;SDS011;16889;67.864;24.990;2023-07-13T18:53:21;5.95;;;3.40;;
30062;SDS011;16889;67.864;24.990;2023-07-13T18:58:07;6.15;;;3.20;;
30062;SDS011;16889;67.864;24.990;2023-07-13T19:02:56;4.03;;;2.95;;
30062;SDS011;16889;67.864;24.990;2023-07-13T19:07:43;5.93;;;3.00;;
30062;SDS011;16889;67.864;24.990;2023-07-13T19:12:29;8.07;;;3.10;;
30062;SDS011;16889;67.864;24.990;2023-07-13T19:17:16;5.28;;;3.60;;
30062;SDS011;16889;67.864;24.990;2023-07-13T19:22:02;5.20;;;3.08;;
30062;SDS011;16889;67.864;24.990;2023-07-13T19:26:49;5.50;;;3.25;;
30062;SDS011;16889;67.864;24.990;2023-07-13T19:31:39;4.72;;;3.10;;
30062;SDS011;16889;67.864;24.990;2023-07-13T19:36:25;6.28;;;3.97;;
30062;SDS011;16889;67.864;24.990;2023-07-13T19:41:12;4.78;;;3.50;;
30062;SDS011;16889;67.864;24.990;2023-07-13T19:46:00;6.95;;;3.63;;
30062;SDS011;16889;67.864;24.990;2023-07-13T19:50:46;5.15;;;3.75;;
30062;SDS011;16889;67.864;24.990;2023-07-13T19:55:33;4.47;;;3.17;;
30062;SDS011;16889;67.864;24.990;2023-07-13T20:00:20;8.20;;;3.83;;
30062;SDS011;16889;67.864;24.990;2023-07-13T20:05:07;7.57;;;3.60;;
30062;SDS011;16889;67.864;24.990;2023-07-13T20:09:53;4.50;;;3.83;;
30062;SDS011;16889;67.864;24.990;2023-07-13T20:14:39;4.80;;;3.72;;
30062;SDS011;16889;67.864;24.990;2023-07-13T20:19:25;5.20;;;4.32;;
30062;SDS011;16889;67.864;24.990;2023-07-13T20:24:17;7.30;;;4.45;;
30062;SDS011;16889;67.864;24.990;2023-07-13T20:29:04;7.25;;;4.38;;
30062;SDS011;16889;67.864;24.990;2023-07-13T20:33:52;6.88;;;4.45;;
30062;SDS011;16889;67.864;24.990;2023-07-13T20:38:38;5.15;;;4.13;;
30062;SDS011;16889;67.864;24.990;2023-07-13T20:43:26;5.97;;;4.45;;
30062;SDS011;16889;67.864;24.990;2023-07-13T20:53:10;6.13;;;4.28;;
30062;SDS011;16889;67.864;24.990;2023-07-13T20:57:57;6.88;;;4.13;;
30062;SDS011;16889;67.864;24.990;2023-07-13T21:02:43;9.75;;;4.53;;
30062;SDS011;16889;67.864;24.990;2023-07-13T21:07:30;8.27;;;4.50;;
30062;SDS011;16889;67.864;24.990;2023-07-13T21:12:16;6.38;;;4.18;;
30062;SDS011;16889;67.864;24.990;2023-07-13T21:17:02;6.38;;;4.53;;
30062;SDS011;16889;67.864;24.990;2023-07-13T21:21:48;4.90;;;3.90;;
30062;SDS011;16889;67.864;24.990;2023-07-13T21:26:34;5.93;;;4.22;;
30062;SDS011;16889;67.864;24.990;2023-07-13T21:31:27;6.30;;;4.32;;
30062;SDS011;16889;67.864;24.990;2023-07-13T21:36:20;6.57;;;4.70;;
30062;SDS011;16889;67.864;24.990;2023-07-13T21:46:14;7.20;;;4.70;;
30062;SDS011;16889;67.864;24.990;2023-07-13T21:51:00;5.75;;;4.22;;
30062;SDS011;16889;67.864;24.990;2023-07-13T21:55:46;9.90;;;5.35;;
30062;SDS011;16889;67.864;24.990;2023-07-13T22:00:33;6.60;;;4.40;;
30062;SDS011;16889;67.864;24.990;2023-07-13T22:05:19;6.80;;;4.50;;
30062;SDS011;16889;67.864;24.990;2023-07-13T22:10:20;9.68;;;4.75;;
30062;SDS011;16889;67.864;24.990;2023-07-13T22:15:08;10.05;;;4.85;;
30062;SDS011;16889;67.864;24.990;2023-07-13T22:19:55;7.18;;;4.18;;
30062;SDS011;16889;67.864;24.990;2023-07-13T22:24:41;6.35;;;4.43;;
30062;SDS011;16889;67.864;24.990;2023-07-13T22:29:28;6.18;;;4.47;;
30062;SDS011;16889;67.864;24.990;2023-07-13T22:34:18;7.90;;;5.20;;
30062;SDS011;16889;67.864;24.990;2023-07-13T22:39:05;8.65;;;5.07;;
30062;SDS011;16889;67.864;24.990;2023-07-13T22:43:54;6.57;;;4.88;;
30062;SDS011;16889;67.864;24.990;2023-07-13T22:48:42;7.20;;;5.05;;
30062;SDS011;16889;67.864;24.990;2023-07-13T22:53:30;6.25;;;5.07;;
30062;SDS011;16889;67.864;24.990;2023-07-13T22:58:19;9.95;;;5.50;;
30062;SDS011;16889;67.864;24.990;2023-07-13T23:03:09;8.15;;;5.28;;
30062;SDS011;16889;67.864;24.990;2023-07-13T23:08:00;7.63;;;5.68;;
30062;SDS011;16889;67.864;24.990;2023-07-13T23:12:46;7.97;;;5.65;;
30062;SDS011;16889;67.864;24.990;2023-07-13T23:17:32;8.15;;;5.32;;
30062;SDS011;16889;67.864;24.990;2023-07-13T23:22:21;6.80;;;5.53;;
30062;SDS011;16889;67.864;24.990;2023-07-13T23:27:11;7.13;;;5.35;;
30062;SDS011;16889;67.864;24.990;2023-07-13T23:31:57;9.48;;;5.22;;
30062;SDS011;16889;67.864;24.990;2023-07-13T23:36:44;8.77;;;5.97;;
30062;SDS011;16889;67.864;24.990;2023-07-13T23:41:30;11.85;;;5.90;;
30062;SDS011;16889;67.864;24.990;2023-07-13T23:51:29;10.80;;;5.65;;
30062;SDS011;16889;67.864;24.990;2023-07-13T23:56:17;8.93;;;5.13;;
